createdAt,value
2019-03-03T00:01:02.370Z,24.70
2019-03-03T00:03:31.890Z,21.17
2019-03-03T00:06:01.435Z,19.57
2019-03-03T00:08:30.960Z,19.30
2019-03-03T00:11:00.489Z,18.90
2019-03-03T00:13:30.045Z,16.30
2019-03-03T00:15:59.869Z,14.85
2019-03-03T00:18:29.393Z,15.00
2019-03-03T00:21:12.707Z,13.40
2019-03-03T00:23:43.221Z,12.63
2019-03-03T00:26:12.763Z,11.90
2019-03-03T00:28:42.458Z,11.38
2019-03-03T00:31:12.175Z,10.98
2019-03-03T00:33:41.721Z,9.13
2019-03-03T00:36:11.757Z,8.98
2019-03-03T00:39:03.840Z,7.58
2019-03-03T00:41:53.009Z,6.90
2019-03-03T00:44:29.810Z,7.35
2019-03-03T00:47:21.346Z,7.43
2019-03-03T00:50:08.667Z,7.20
2019-03-03T00:53:06.063Z,6.15
2019-03-03T00:55:50.168Z,6.27
2019-03-03T00:58:26.141Z,5.93
2019-03-03T01:01:00.348Z,5.80
2019-03-03T01:03:34.242Z,6.10
2019-03-03T01:06:22.807Z,6.62
2019-03-03T01:08:59.677Z,5.22
2019-03-03T01:11:38.614Z,6.35
2019-03-03T01:14:13.628Z,5.40
2019-03-03T01:16:54.510Z,5.20
2019-03-03T01:19:45.839Z,5.90
2019-03-03T01:22:22.336Z,6.27
2019-03-03T01:24:57.738Z,5.47
2019-03-03T01:27:27.910Z,5.80
2019-03-03T01:29:57.442Z,5.60
2019-03-03T01:32:26.968Z,6.60
2019-03-03T01:34:56.506Z,6.65
2019-03-03T01:37:26.039Z,7.65
2019-03-03T01:39:55.565Z,7.10
2019-03-03T01:42:25.093Z,8.10
2019-03-03T01:44:54.615Z,8.63
2019-03-03T01:47:24.131Z,9.10
2019-03-03T01:49:53.656Z,10.10
2019-03-03T01:52:23.189Z,11.00
2019-03-03T01:54:52.719Z,10.82
2019-03-03T01:57:22.253Z,11.00
2019-03-03T01:59:51.783Z,11.50
2019-03-03T02:02:21.390Z,12.35
2019-03-03T02:04:50.919Z,11.18
2019-03-03T02:07:20.446Z,12.65
2019-03-03T02:09:49.958Z,12.28
2019-03-03T02:12:19.486Z,11.57
2019-03-03T02:14:49.006Z,10.50
2019-03-03T02:17:18.606Z,10.95
2019-03-03T02:19:48.131Z,10.72
2019-03-03T02:22:17.659Z,10.20
2019-03-03T02:24:47.174Z,9.80
2019-03-03T02:27:16.716Z,10.00
2019-03-03T02:29:46.243Z,9.10
2019-03-03T02:32:15.784Z,10.20
2019-03-03T02:34:45.320Z,9.13
2019-03-03T02:37:14.864Z,10.00
2019-03-03T02:39:44.392Z,8.65
2019-03-03T02:42:13.924Z,8.88
2019-03-03T02:44:43.432Z,8.65
2019-03-03T02:47:12.982Z,8.58
2019-03-03T02:49:42.510Z,8.40
2019-03-03T02:52:12.040Z,8.10
2019-03-03T02:54:41.577Z,7.70
2019-03-03T02:57:11.198Z,7.72
2019-03-03T02:59:40.706Z,8.53
2019-03-03T03:02:16.826Z,7.40
2019-03-03T03:04:46.329Z,7.72
2019-03-03T03:07:34.882Z,7.95
2019-03-03T03:10:10.985Z,7.00
2019-03-03T03:12:53.362Z,7.20
2019-03-03T03:15:40.671Z,7.20
2019-03-03T03:18:27.511Z,6.53
2019-03-03T03:21:05.504Z,6.80
2019-03-03T03:23:41.149Z,6.78
2019-03-03T03:26:16.489Z,6.10
2019-03-03T03:29:11.216Z,5.90
2019-03-03T03:32:05.844Z,5.83
2019-03-03T03:34:40.117Z,5.67
2019-03-03T03:37:25.881Z,5.40
2019-03-03T03:40:14.740Z,5.12
2019-03-03T03:43:09.034Z,4.75
2019-03-03T03:45:50.102Z,4.87
2019-03-03T03:48:25.764Z,5.30
2019-03-03T03:51:13.691Z,4.95
2019-03-03T03:54:14.511Z,4.30
2019-03-03T03:56:58.978Z,4.40
2019-03-03T03:59:43.753Z,4.58
2019-03-03T04:02:35.212Z,4.20
2019-03-03T04:05:27.196Z,4.50
2019-03-03T04:08:15.781Z,4.33
2019-03-03T04:11:01.032Z,4.33
2019-03-03T04:14:05.886Z,4.20
2019-03-03T04:16:40.286Z,3.83
2019-03-03T04:19:18.925Z,4.10
2019-03-03T04:21:55.574Z,3.62
2019-03-03T04:24:43.121Z,4.10
2019-03-03T04:27:27.961Z,4.10
2019-03-03T04:30:02.317Z,3.90
2019-03-03T04:32:52.449Z,4.00
2019-03-03T04:35:31.510Z,3.60
2019-03-03T04:38:14.535Z,3.98
2019-03-03T04:41:08.309Z,3.60
2019-03-03T04:43:53.703Z,4.20
2019-03-03T04:46:46.941Z,4.20
2019-03-03T04:49:27.223Z,3.87
2019-03-03T04:52:09.197Z,3.62
2019-03-03T04:54:48.953Z,4.10
2019-03-03T04:57:26.223Z,3.65
2019-03-03T05:00:28.305Z,3.55
2019-03-03T05:03:12.354Z,2.90
2019-03-03T05:05:53.624Z,4.00
2019-03-03T05:08:31.353Z,3.60
2019-03-03T05:11:18.578Z,4.00
2019-03-03T05:14:12.918Z,3.17
2019-03-03T05:16:48.462Z,3.60
2019-03-03T05:19:24.029Z,3.62
2019-03-03T05:21:53.543Z,3.98
2019-03-03T05:24:23.061Z,3.98
2019-03-03T05:26:52.592Z,4.00
2019-03-03T05:29:22.109Z,3.60
2019-03-03T05:31:51.644Z,4.10
2019-03-03T05:34:21.194Z,3.67
2019-03-03T05:36:50.704Z,4.00
2019-03-03T05:39:20.217Z,3.50
2019-03-03T05:41:49.760Z,3.15
2019-03-03T05:44:19.261Z,3.50
2019-03-03T05:46:48.784Z,3.60
2019-03-03T05:49:18.297Z,4.20
2019-03-03T05:51:47.815Z,3.93
2019-03-03T05:54:17.321Z,3.75
2019-03-03T05:56:46.836Z,4.15
2019-03-03T05:59:16.616Z,3.75
2019-03-03T06:01:46.138Z,3.90
2019-03-03T06:04:15.640Z,3.40
2019-03-03T06:06:45.244Z,3.75
2019-03-03T06:09:14.849Z,3.62
2019-03-03T06:11:44.365Z,3.60
2019-03-03T06:14:13.885Z,3.90
2019-03-03T06:16:43.403Z,3.42
2019-03-03T06:19:12.915Z,4.15
2019-03-03T06:21:42.483Z,4.17
2019-03-03T06:24:11.947Z,4.30
2019-03-03T06:26:41.452Z,4.37
2019-03-03T06:29:10.970Z,4.05
2019-03-03T06:31:40.489Z,4.15
2019-03-03T06:34:10.014Z,4.28
2019-03-03T06:36:39.546Z,3.98
2019-03-03T06:39:09.048Z,4.10
2019-03-03T06:41:38.568Z,4.83
2019-03-03T06:44:08.077Z,4.10
2019-03-03T06:46:37.601Z,4.60
2019-03-03T06:49:07.173Z,4.05
2019-03-03T06:51:36.643Z,4.00
2019-03-03T06:54:06.151Z,4.00
2019-03-03T06:56:36.952Z,4.80
2019-03-03T06:59:06.457Z,4.75
2019-03-03T07:01:35.983Z,5.15
2019-03-03T07:04:05.508Z,4.67
2019-03-03T07:06:35.044Z,5.40
2019-03-03T07:09:05.558Z,4.50
2019-03-03T07:11:36.066Z,4.47
2019-03-03T07:14:05.654Z,6.50
2019-03-03T07:16:35.175Z,5.27
2019-03-03T07:19:04.685Z,5.58
2019-03-03T07:21:34.223Z,5.90
2019-03-03T07:24:03.738Z,5.53
2019-03-03T07:26:33.255Z,5.33
2019-03-03T07:29:02.764Z,5.40
2019-03-03T07:31:32.272Z,6.00
2019-03-03T07:34:03.155Z,6.22
2019-03-03T07:36:32.671Z,6.42
2019-03-03T07:39:04.435Z,6.20
2019-03-03T07:41:34.231Z,5.85
2019-03-03T07:44:03.756Z,6.45
2019-03-03T07:46:33.264Z,6.17
2019-03-03T07:49:02.791Z,6.40
2019-03-03T07:51:32.311Z,6.00
2019-03-03T07:54:01.837Z,6.20
2019-03-03T07:56:31.345Z,6.20
2019-03-03T07:59:00.870Z,6.00
2019-03-03T08:01:30.372Z,5.50
2019-03-03T08:03:59.889Z,5.80
2019-03-03T08:06:29.411Z,5.60
2019-03-03T08:08:58.926Z,6.70
2019-03-03T08:11:28.437Z,5.65
2019-03-03T08:13:58.018Z,5.90
2019-03-03T08:16:27.530Z,6.00
2019-03-03T08:18:57.039Z,6.50
2019-03-03T08:21:26.589Z,6.40
2019-03-03T08:23:56.109Z,6.20
2019-03-03T08:26:25.629Z,6.33
2019-03-03T08:28:55.160Z,6.40
2019-03-03T08:31:24.696Z,6.40
2019-03-03T08:33:54.242Z,5.62
2019-03-03T08:36:23.776Z,6.80
2019-03-03T08:38:53.314Z,6.50
2019-03-03T08:41:22.831Z,6.53
2019-03-03T08:44:06.006Z,5.95
2019-03-03T08:46:54.588Z,6.60
2019-03-03T08:49:49.284Z,5.85
2019-03-03T08:52:43.713Z,5.40
2019-03-03T08:55:20.914Z,6.80
2019-03-03T08:58:06.818Z,6.20
2019-03-03T09:01:00.585Z,5.93
2019-03-03T09:03:42.609Z,5.87
2019-03-03T09:06:33.791Z,5.67
2019-03-03T09:09:17.531Z,6.40
2019-03-03T09:11:53.577Z,6.85
2019-03-03T09:14:42.040Z,5.97
2019-03-03T09:17:28.632Z,5.90
2019-03-03T09:20:15.971Z,5.80
2019-03-03T09:22:57.653Z,6.20
2019-03-03T09:25:37.720Z,6.40
2019-03-03T09:28:25.081Z,5.90
2019-03-03T09:31:19.650Z,5.70
2019-03-03T09:33:56.817Z,6.37
2019-03-03T09:36:36.857Z,5.80
2019-03-03T09:39:25.477Z,6.07
2019-03-03T09:42:13.185Z,5.80
2019-03-03T09:44:59.447Z,5.50
2019-03-03T09:47:38.060Z,5.60
2019-03-03T09:50:18.646Z,6.10
2019-03-03T09:52:59.512Z,5.63
2019-03-03T09:55:52.866Z,5.50
2019-03-03T09:58:43.152Z,6.00
2019-03-03T10:01:34.620Z,5.47
2019-03-03T10:04:18.794Z,5.53
2019-03-03T10:07:22.385Z,5.70
2019-03-03T10:10:01.856Z,6.20
2019-03-03T10:12:38.761Z,5.70
2019-03-03T10:15:36.953Z,5.73
2019-03-03T10:18:17.178Z,6.20
2019-03-03T10:21:03.276Z,5.60
2019-03-03T10:23:44.866Z,5.80
2019-03-03T10:26:36.795Z,5.55
2019-03-03T10:29:17.249Z,5.95
2019-03-03T10:32:01.307Z,6.17
2019-03-03T10:34:49.029Z,5.45
2019-03-03T10:37:42.623Z,5.60
2019-03-03T10:40:30.459Z,5.42
2019-03-03T10:43:07.248Z,5.10
2019-03-03T10:45:55.890Z,5.37
2019-03-03T10:48:34.699Z,5.30
2019-03-03T10:51:15.585Z,5.07
2019-03-03T10:53:51.128Z,5.03
2019-03-03T10:56:38.343Z,5.05
2019-03-03T10:59:32.708Z,5.13
2019-03-03T11:02:18.763Z,5.10
2019-03-03T11:04:58.870Z,5.30
2019-03-03T11:07:41.073Z,4.40
2019-03-03T11:10:29.002Z,5.10
2019-03-03T11:13:29.765Z,5.00
2019-03-03T11:16:20.099Z,4.90
2019-03-03T11:19:12.700Z,4.70
2019-03-03T11:22:00.044Z,4.47
2019-03-03T11:24:46.878Z,4.67
2019-03-03T11:27:32.712Z,4.30
2019-03-03T11:30:16.176Z,4.30
2019-03-03T11:32:53.032Z,3.90
2019-03-03T11:35:29.794Z,4.40
2019-03-03T11:38:08.123Z,3.90
2019-03-03T11:41:06.378Z,3.87
2019-03-03T11:43:56.576Z,3.80
2019-03-03T11:46:45.270Z,3.10
2019-03-03T11:49:39.480Z,3.37
2019-03-03T11:52:30.973Z,3.00
2019-03-03T11:55:06.954Z,2.98
2019-03-03T11:57:46.186Z,2.90
2019-03-03T12:00:34.975Z,3.20
2019-03-03T12:03:17.405Z,3.30
2019-03-03T12:05:56.110Z,3.40
2019-03-03T12:08:59.807Z,3.27
2019-03-03T12:11:38.710Z,2.77
2019-03-03T12:14:25.013Z,2.90
2019-03-03T12:17:05.674Z,2.55
2019-03-03T12:19:53.173Z,2.90
2019-03-03T12:22:43.225Z,2.70
2019-03-03T12:25:28.424Z,2.70
2019-03-03T12:28:35.125Z,2.50
2019-03-03T12:31:15.759Z,2.93
2019-03-03T12:33:52.643Z,2.67
2019-03-03T12:36:47.880Z,3.10
2019-03-03T12:39:33.932Z,2.85
2019-03-03T12:42:11.515Z,3.30
2019-03-03T12:45:04.089Z,2.90
2019-03-03T12:47:40.113Z,2.70
2019-03-03T12:50:32.710Z,3.33
2019-03-03T12:53:20.388Z,3.10
2019-03-03T12:56:08.952Z,3.00
2019-03-03T12:58:51.467Z,2.50
2019-03-03T13:01:50.358Z,3.20
2019-03-03T13:04:41.760Z,3.25
2019-03-03T13:07:29.007Z,3.30
2019-03-03T13:10:10.081Z,3.60
2019-03-03T13:13:04.701Z,22.00
2019-03-03T13:15:56.261Z,3.63
2019-03-03T13:18:47.620Z,3.93
2019-03-03T13:21:32.360Z,3.33
2019-03-03T13:24:35.957Z,3.87
2019-03-03T13:27:23.286Z,3.45
2019-03-03T13:30:14.888Z,3.92
2019-03-03T13:33:07.540Z,3.98
2019-03-03T13:35:45.274Z,4.40
2019-03-03T13:38:32.623Z,3.98
2019-03-03T13:41:19.958Z,4.05
2019-03-03T13:43:49.862Z,5.20
2019-03-03T13:46:21.276Z,4.67
2019-03-03T13:48:51.390Z,4.55
2019-03-03T13:51:21.014Z,4.80
2019-03-03T13:53:50.617Z,4.50
2019-03-03T13:56:20.131Z,4.33
2019-03-03T13:58:49.635Z,4.20
2019-03-03T14:01:19.151Z,4.80
2019-03-03T14:03:48.755Z,4.70
2019-03-03T14:06:18.268Z,5.67
2019-03-03T14:08:47.782Z,5.03
2019-03-03T14:11:26.674Z,4.97
2019-03-03T14:13:56.196Z,5.23
2019-03-03T14:16:25.787Z,4.87
2019-03-03T14:18:55.289Z,5.30
2019-03-03T14:21:24.895Z,5.30
2019-03-03T14:23:54.402Z,5.20
2019-03-03T14:26:23.936Z,5.03
2019-03-03T14:28:55.244Z,5.20
2019-03-03T14:31:25.960Z,4.85
2019-03-03T14:33:55.476Z,5.10
2019-03-03T14:36:25.000Z,5.03
2019-03-03T14:38:54.518Z,5.37
2019-03-03T14:41:24.051Z,5.10
2019-03-03T14:43:53.584Z,4.70
2019-03-03T14:46:23.104Z,5.20
2019-03-03T14:48:52.604Z,4.72
2019-03-03T14:51:22.126Z,4.90
2019-03-03T14:53:51.647Z,4.60
2019-03-03T14:56:21.157Z,4.50
2019-03-03T14:58:50.678Z,4.40
2019-03-03T15:01:20.218Z,4.35
2019-03-03T15:03:49.726Z,4.37
2019-03-03T15:06:24.330Z,4.40
2019-03-03T15:08:50.457Z,4.40
2019-03-03T15:11:19.980Z,3.80
2019-03-03T15:13:49.483Z,4.60
2019-03-03T15:16:19.976Z,4.50
2019-03-03T15:18:49.491Z,4.87
2019-03-03T15:21:25.017Z,4.40
2019-03-03T15:23:50.249Z,4.83
2019-03-03T15:26:19.770Z,4.30
2019-03-03T15:28:49.280Z,4.10
2019-03-03T15:31:18.813Z,5.20
2019-03-03T15:33:48.321Z,4.40
2019-03-03T15:36:17.860Z,4.58
2019-03-03T15:38:47.380Z,4.00
2019-03-03T15:41:16.976Z,4.13
2019-03-03T15:43:46.479Z,4.23
2019-03-03T15:46:16.034Z,4.67
2019-03-03T15:48:45.557Z,4.50
2019-03-03T15:51:15.165Z,4.37
2019-03-03T15:53:44.687Z,4.70
2019-03-03T15:56:14.214Z,4.87
2019-03-03T15:58:43.778Z,4.20
2019-03-03T16:01:15.658Z,4.12
2019-03-03T16:03:45.423Z,4.40
2019-03-03T16:06:15.077Z,4.20
2019-03-03T16:08:44.646Z,3.87
2019-03-03T16:11:14.589Z,3.97
2019-03-03T16:13:44.134Z,3.90
2019-03-03T16:16:13.659Z,3.80
2019-03-03T16:18:43.264Z,3.40
2019-03-03T16:21:12.797Z,3.80
2019-03-03T16:23:42.321Z,3.60
2019-03-03T16:26:11.816Z,4.10
2019-03-03T16:28:41.335Z,3.70
2019-03-03T16:31:10.862Z,4.67
2019-03-03T16:33:40.392Z,4.10
2019-03-03T16:36:09.902Z,3.85
2019-03-03T16:38:39.430Z,4.15
2019-03-03T16:41:08.931Z,4.55
2019-03-03T16:43:38.470Z,4.47
2019-03-03T16:46:07.982Z,4.93
2019-03-03T16:48:37.524Z,4.75
2019-03-03T16:51:07.070Z,5.10
2019-03-03T16:53:36.591Z,5.03
2019-03-03T16:56:06.179Z,6.13
2019-03-03T16:58:35.691Z,6.00
2019-03-03T17:01:05.272Z,6.80
2019-03-03T17:03:34.831Z,6.25
2019-03-03T17:06:04.387Z,6.80
2019-03-03T17:08:33.916Z,6.35
2019-03-03T17:11:03.440Z,7.10
2019-03-03T17:13:32.988Z,6.92
2019-03-03T17:16:02.522Z,7.30
2019-03-03T17:18:32.247Z,7.57
2019-03-03T17:21:02.559Z,7.08
2019-03-03T17:23:32.163Z,6.80
2019-03-03T17:26:01.684Z,7.10
2019-03-03T17:28:31.221Z,7.47
2019-03-03T17:31:00.748Z,7.23
2019-03-03T17:33:30.296Z,7.83
2019-03-03T17:35:59.827Z,6.80
2019-03-03T17:38:29.351Z,7.40
2019-03-03T17:40:58.855Z,6.90
2019-03-03T17:43:28.376Z,7.00
2019-03-03T17:45:57.893Z,7.72
2019-03-03T17:48:27.443Z,7.35
2019-03-03T17:50:57.043Z,7.20
2019-03-03T17:53:26.590Z,6.30
2019-03-03T17:55:56.087Z,6.55
2019-03-03T17:58:26.683Z,6.80
2019-03-03T18:00:56.196Z,6.80
2019-03-03T18:03:25.737Z,6.17
2019-03-03T18:05:55.292Z,6.07
2019-03-03T18:08:24.818Z,5.60
2019-03-03T18:10:54.354Z,6.20
2019-03-03T18:13:23.890Z,5.83
2019-03-03T18:15:53.409Z,6.10
2019-03-03T18:18:22.924Z,6.28
2019-03-03T18:20:52.472Z,5.30
2019-03-03T18:23:22.036Z,6.55
2019-03-03T18:25:51.569Z,6.07
2019-03-03T18:28:21.093Z,5.57
2019-03-03T18:30:50.631Z,6.00
2019-03-03T18:33:20.145Z,5.90
2019-03-03T18:35:49.698Z,5.53
2019-03-03T18:38:19.232Z,5.50
2019-03-03T18:40:49.731Z,4.77
2019-03-03T18:43:19.285Z,4.90
2019-03-03T18:45:49.003Z,4.60
2019-03-03T18:48:18.538Z,4.40
2019-03-03T18:50:48.053Z,4.30
2019-03-03T18:53:17.588Z,5.43
2019-03-03T18:55:47.109Z,5.10
2019-03-03T18:58:16.628Z,4.70
2019-03-03T19:00:46.220Z,4.70
2019-03-03T19:03:16.101Z,4.60
2019-03-03T19:05:55.215Z,4.83
2019-03-03T19:08:17.186Z,4.63
2019-03-03T19:10:46.798Z,4.40
2019-03-03T19:13:16.345Z,4.37
2019-03-03T19:15:46.405Z,4.80
2019-03-03T19:18:16.048Z,4.40
2019-03-03T19:20:45.586Z,4.90
2019-03-03T19:23:15.103Z,4.17
2019-03-03T19:25:44.650Z,4.75
2019-03-03T19:28:14.185Z,4.50
2019-03-03T19:30:43.705Z,5.07
2019-03-03T19:33:22.853Z,4.80
2019-03-03T19:35:52.473Z,4.90
2019-03-03T19:38:22.059Z,4.58
2019-03-03T19:40:51.599Z,4.57
2019-03-03T19:43:21.184Z,4.40
2019-03-03T19:45:51.429Z,4.50
2019-03-03T19:48:21.041Z,4.70
2019-03-03T19:50:50.652Z,4.40
2019-03-03T19:53:20.994Z,4.53
2019-03-03T19:55:50.614Z,5.20
2019-03-03T19:58:20.216Z,5.22
2019-03-03T20:00:49.757Z,5.83
2019-03-03T20:03:19.289Z,4.70
2019-03-03T20:05:48.896Z,4.63
2019-03-03T20:08:18.423Z,4.50
2019-03-03T20:10:48.036Z,4.20
2019-03-03T20:13:17.578Z,4.50
2019-03-03T20:15:47.109Z,4.70
2019-03-03T20:18:16.668Z,4.90
2019-03-03T20:20:46.500Z,4.93
2019-03-03T20:23:16.614Z,4.20
2019-03-03T20:25:46.148Z,4.80
2019-03-03T20:28:15.761Z,4.03
2019-03-03T20:30:46.008Z,4.40
2019-03-03T20:33:15.512Z,4.80
2019-03-03T20:35:45.206Z,4.63
2019-03-03T20:38:14.715Z,5.17
2019-03-03T20:40:44.245Z,4.73
2019-03-03T20:43:13.792Z,4.75
2019-03-03T20:45:43.348Z,3.98
2019-03-03T20:48:12.890Z,4.62
2019-03-03T20:50:42.410Z,4.50
2019-03-03T20:53:11.930Z,4.58
2019-03-03T20:55:41.458Z,4.35
2019-03-03T20:58:11.430Z,4.80
2019-03-03T21:00:40.955Z,4.60
2019-03-03T21:03:10.506Z,4.40
2019-03-03T21:05:40.056Z,4.62
2019-03-03T21:08:10.649Z,4.70
2019-03-03T21:10:40.187Z,4.47
2019-03-03T21:13:09.977Z,3.95
2019-03-03T21:15:40.111Z,4.20
2019-03-03T21:18:09.838Z,4.10
2019-03-03T21:20:39.857Z,4.72
2019-03-03T21:23:09.884Z,4.33
2019-03-03T21:25:39.935Z,4.80
2019-03-03T21:28:10.307Z,5.10
2019-03-03T21:30:39.964Z,4.60
2019-03-03T21:33:09.976Z,4.15
2019-03-03T21:35:39.981Z,4.45
2019-03-03T21:38:09.525Z,4.37
2019-03-03T21:40:39.047Z,4.65
2019-03-03T21:43:08.593Z,4.80
2019-03-03T21:45:38.145Z,4.73
2019-03-03T21:48:07.677Z,4.40
2019-03-03T21:50:37.192Z,4.80
2019-03-03T21:53:06.726Z,4.40
2019-03-03T21:55:36.310Z,4.20
2019-03-03T21:58:06.007Z,4.70
2019-03-03T22:00:37.279Z,4.58
2019-03-03T22:03:07.101Z,4.17
2019-03-03T22:05:37.666Z,4.67
2019-03-03T22:08:07.231Z,5.40
2019-03-03T22:10:36.824Z,5.20
2019-03-03T22:13:08.294Z,4.55
2019-03-03T22:15:37.883Z,4.60
2019-03-03T22:18:07.485Z,5.17
2019-03-03T22:20:37.097Z,4.55
2019-03-03T22:23:06.617Z,5.03
2019-03-03T22:25:36.155Z,4.40
2019-03-03T22:28:05.677Z,4.10
2019-03-03T22:30:35.193Z,4.40
2019-03-03T22:33:04.746Z,4.20
2019-03-03T22:35:34.269Z,3.20
2019-03-03T22:38:03.802Z,3.97
2019-03-03T22:40:33.337Z,3.80
2019-03-03T22:43:02.873Z,4.05
2019-03-03T22:45:32.469Z,3.92
2019-03-03T22:48:02.006Z,3.52
2019-03-03T22:50:31.563Z,3.95
2019-03-03T22:53:02.054Z,4.10
2019-03-03T22:55:36.328Z,3.55
2019-03-03T22:58:06.046Z,3.27
2019-03-03T23:00:53.429Z,3.60
2019-03-03T23:03:33.823Z,3.67
2019-03-03T23:06:24.015Z,3.52
2019-03-03T23:09:15.303Z,3.50
2019-03-03T23:11:56.608Z,3.73
2019-03-03T23:15:04.737Z,3.08
2019-03-03T23:17:40.215Z,3.60
2019-03-03T23:20:23.179Z,3.62
2019-03-03T23:23:49.781Z,3.63
2019-03-03T23:26:19.308Z,3.80
2019-03-03T23:28:48.834Z,3.60
2019-03-03T23:31:18.362Z,3.72
2019-03-03T23:33:47.903Z,3.40
2019-03-03T23:36:17.407Z,3.33
2019-03-03T23:38:46.928Z,4.25
2019-03-03T23:41:16.515Z,3.65
2019-03-03T23:43:46.075Z,3.60
2019-03-03T23:46:15.601Z,3.20
2019-03-03T23:48:45.131Z,3.40
2019-03-03T23:51:14.665Z,3.12
2019-03-03T23:53:44.512Z,3.47
2019-03-03T23:56:14.050Z,3.80
2019-03-03T23:58:43.569Z,3.73
